Happy Valley, Nevada
Current Conditions -  °F | °C
As of 3:55 PM on Saturday 20 Dec 2014 (Local Time) from KRNO Reporting Station
Overcast Overcast  
Wind Chill: 10°   Ceiling: 9500
Heat Index: 10°   Visibility: 10mi
Dew Point:   Wind: 8mph
Humidity: 54%   Direction: 280°W
Pressure: 30.09"   Gusts: NA
Location:  39.5386°N, 119.749°W
Report Text: KRNO 202355Z 28007KT 250V310 10SM FEW038 SCT075 BKN095 BKN140 OVC200 10/01 A3009 RMK AO2 SLP175 ACSL ALQDS CLDS TPG MTNS SW W 60000 T01000011 10100 20067 53005
Loading
Personal Weather Stations






























Interactive Weather Map New forecast layout! Learn more

10-Day Weather Forecast

Advertisements
Track Severe Weather on mobile